createdAt,value
2023-05-10T00:01:19.597Z,1.08
2023-05-10T00:03:46.839Z,0.90
2023-05-10T00:06:14.088Z,0.95
2023-05-10T00:08:41.248Z,0.90
2023-05-10T00:11:08.337Z,0.90
2023-05-10T00:13:35.605Z,0.90
2023-05-10T00:16:02.842Z,1.05
2023-05-10T00:18:30.068Z,1.10
2023-05-10T00:20:57.180Z,1.17
2023-05-10T00:23:24.310Z,0.88
2023-05-10T00:25:51.428Z,0.82
2023-05-10T00:28:18.532Z,1.10
2023-05-10T00:30:45.683Z,1.02
2023-05-10T00:33:13.421Z,1.02
2023-05-10T00:35:40.535Z,0.98
2023-05-10T00:38:07.776Z,0.98
2023-05-10T00:40:34.931Z,1.00
2023-05-10T00:43:02.423Z,1.10
2023-05-10T00:45:29.647Z,1.23
2023-05-10T00:47:57.103Z,0.88
2023-05-10T00:50:24.932Z,0.70
2023-05-10T00:52:52.080Z,1.08
2023-05-10T00:55:19.550Z,0.70
2023-05-10T00:57:46.799Z,1.55
2023-05-10T01:00:18.850Z,0.70
2023-05-10T01:02:50.551Z,0.70
2023-05-10T01:05:17.856Z,0.80
2023-05-10T01:07:45.069Z,0.70
2023-05-10T01:10:12.420Z,0.73
2023-05-10T01:12:41.161Z,0.60
2023-05-10T01:15:09.428Z,0.80
2023-05-10T01:17:41.544Z,0.80
2023-05-10T01:20:09.530Z,0.70
2023-05-10T01:22:55.364Z,0.80
2023-05-10T01:25:31.641Z,0.70
2023-05-10T01:28:17.573Z,0.60
2023-05-10T01:31:03.478Z,0.50
2023-05-10T01:33:37.531Z,0.50
2023-05-10T01:36:15.217Z,0.63
2023-05-10T01:38:42.303Z,0.60
2023-05-10T01:41:26.862Z,0.60
2023-05-10T01:44:02.450Z,0.60
2023-05-10T01:46:33.111Z,0.28
2023-05-10T01:49:02.589Z,0.73
2023-05-10T01:51:33.129Z,0.65
2023-05-10T01:54:02.881Z,0.60
2023-05-10T01:56:31.701Z,0.57
2023-05-10T01:58:59.686Z,0.63
2023-05-10T02:01:27.250Z,0.70
2023-05-10T02:03:54.958Z,0.52
2023-05-10T02:06:23.263Z,0.35
2023-05-10T02:08:51.354Z,0.70
2023-05-10T02:11:19.421Z,0.65
2023-05-10T02:13:48.289Z,0.73
2023-05-10T02:16:15.920Z,0.70
2023-05-10T02:18:43.247Z,0.60
2023-05-10T02:21:12.087Z,0.47
2023-05-10T02:23:39.486Z,0.70
2023-05-10T02:26:07.368Z,0.50
2023-05-10T02:28:35.426Z,0.60
2023-05-10T02:31:02.771Z,0.60
2023-05-10T02:33:30.903Z,0.50
2023-05-10T02:35:58.452Z,0.68
2023-05-10T02:38:26.199Z,0.45
2023-05-10T02:40:54.376Z,0.60
2023-05-10T02:43:24.214Z,0.65
2023-05-10T02:45:51.588Z,0.60
2023-05-10T02:48:19.057Z,0.50
2023-05-10T02:50:47.706Z,0.73
2023-05-10T02:53:20.457Z,0.60
2023-05-10T02:55:51.396Z,0.45
2023-05-10T02:58:20.300Z,0.70
2023-05-10T03:00:47.588Z,0.60
2023-05-10T03:03:14.693Z,0.60
2023-05-10T03:05:41.857Z,0.50
2023-05-10T03:08:09.186Z,0.70
2023-05-10T03:10:39.769Z,0.50
2023-05-10T03:13:06.922Z,0.43
2023-05-10T03:15:34.045Z,0.63
2023-05-10T03:18:09.319Z,0.73
2023-05-10T03:20:50.288Z,0.50
2023-05-10T03:23:23.770Z,0.40
2023-05-10T03:25:51.732Z,0.35
2023-05-10T03:28:19.970Z,0.73
2023-05-10T03:30:47.825Z,0.50
2023-05-10T03:33:15.209Z,0.60
2023-05-10T03:35:42.478Z,0.50
2023-05-10T03:38:09.603Z,0.45
2023-05-10T03:40:36.765Z,0.50
2023-05-10T03:43:03.880Z,0.50
2023-05-10T03:45:31.730Z,0.50
2023-05-10T03:47:59.514Z,0.50
2023-05-10T03:50:27.278Z,0.40
2023-05-10T03:52:54.839Z,0.60
2023-05-10T03:55:23.429Z,0.45
2023-05-10T03:57:50.684Z,0.70
2023-05-10T04:00:18.379Z,0.40
2023-05-10T04:02:46.374Z,0.43
2023-05-10T04:05:13.728Z,0.55
2023-05-10T04:07:40.948Z,0.50
2023-05-10T04:10:08.565Z,0.68
2023-05-10T04:12:35.696Z,0.55
2023-05-10T04:15:02.857Z,0.50
2023-05-10T04:17:30.260Z,0.50
2023-05-10T04:19:57.527Z,0.60
2023-05-10T04:22:24.642Z,0.38
2023-05-10T04:24:51.762Z,0.47
2023-05-10T04:27:19.020Z,0.57
2023-05-10T04:29:46.114Z,0.40
2023-05-10T04:32:13.233Z,0.60
2023-05-10T04:34:40.407Z,0.40
2023-05-10T04:37:08.579Z,0.45
2023-05-10T04:39:36.195Z,0.50
2023-05-10T04:42:06.622Z,0.50
2023-05-10T04:44:34.003Z,0.40
2023-05-10T04:47:03.196Z,0.40
2023-05-10T04:49:30.864Z,0.50
2023-05-10T04:51:57.950Z,0.80
2023-05-10T04:54:25.265Z,0.80
2023-05-10T04:56:52.466Z,0.40
2023-05-10T04:59:19.591Z,0.60
2023-05-10T05:01:46.827Z,0.47
2023-05-10T05:04:14.636Z,0.32
2023-05-10T05:06:41.881Z,0.60
2023-05-10T05:09:08.991Z,0.20
2023-05-10T05:11:36.070Z,0.65
2023-05-10T05:14:03.250Z,0.30
2023-05-10T05:16:33.047Z,0.28
2023-05-10T05:19:01.781Z,0.30
2023-05-10T05:21:29.755Z,0.52
2023-05-10T05:23:56.919Z,0.70
2023-05-10T05:26:24.040Z,0.65
2023-05-10T05:28:54.685Z,0.55
2023-05-10T05:31:22.311Z,0.60
2023-05-10T05:33:49.498Z,0.70
2023-05-10T05:36:16.676Z,0.45
2023-05-10T05:38:44.069Z,0.80
2023-05-10T05:41:11.244Z,0.50
2023-05-10T05:43:38.661Z,0.57
2023-05-10T05:46:06.128Z,1.67
2023-05-10T05:48:33.326Z,0.50
2023-05-10T05:51:00.486Z,0.98
2023-05-10T05:53:27.726Z,0.60
2023-05-10T05:55:55.224Z,0.63
2023-05-10T05:58:23.172Z,0.70
2023-05-10T06:00:50.633Z,0.80
2023-05-10T06:03:17.941Z,0.55
2023-05-10T06:05:45.364Z,0.52
2023-05-10T06:08:12.555Z,0.50
2023-05-10T06:10:39.682Z,0.52
2023-05-10T06:13:06.830Z,1.08
2023-05-10T06:15:34.346Z,0.60
2023-05-10T06:18:01.642Z,0.50
2023-05-10T06:20:28.857Z,0.70
2023-05-10T06:22:56.129Z,0.70
2023-05-10T06:25:23.276Z,0.50
2023-05-10T06:27:53.617Z,0.70
2023-05-10T06:30:23.979Z,0.85
2023-05-10T06:32:51.111Z,0.63
2023-05-10T06:35:19.312Z,3.40
2023-05-10T06:37:47.652Z,0.90
2023-05-10T06:40:15.395Z,0.80
2023-05-10T06:42:42.616Z,0.77
2023-05-10T06:45:10.184Z,0.88
2023-05-10T06:47:39.286Z,0.90
2023-05-10T06:50:06.950Z,0.82
2023-05-10T06:52:34.099Z,0.75
2023-05-10T06:55:01.389Z,0.65
2023-05-10T06:57:31.580Z,0.50
2023-05-10T06:59:59.963Z,0.70
2023-05-10T07:02:27.242Z,0.75
2023-05-10T07:04:55.193Z,0.60
2023-05-10T07:07:22.482Z,0.85
2023-05-10T07:09:50.917Z,0.82
2023-05-10T07:12:18.141Z,0.73
2023-05-10T07:14:45.449Z,0.82
2023-05-10T07:17:12.806Z,0.70
2023-05-10T07:19:39.961Z,1.00
2023-05-10T07:22:07.094Z,1.17
2023-05-10T07:24:34.331Z,0.95
2023-05-10T07:27:01.671Z,1.20
2023-05-10T07:29:29.429Z,1.23
2023-05-10T07:31:58.708Z,0.95
2023-05-10T07:34:26.454Z,1.15
2023-05-10T07:36:53.877Z,1.08
2023-05-10T07:39:27.602Z,1.30
2023-05-10T07:41:55.619Z,0.80
2023-05-10T07:44:22.756Z,0.75
2023-05-10T07:46:50.000Z,0.77
2023-05-10T07:49:17.121Z,1.45
2023-05-10T07:51:44.370Z,0.85
2023-05-10T07:54:11.603Z,1.00
2023-05-10T07:56:38.908Z,0.90
2023-05-10T07:59:08.345Z,0.70
2023-05-10T08:01:36.632Z,0.90
2023-05-10T08:04:03.999Z,0.80
2023-05-10T08:06:31.546Z,0.70
2023-05-10T08:08:58.765Z,0.65
2023-05-10T08:11:26.251Z,0.82
2023-05-10T08:13:53.809Z,0.85
2023-05-10T08:16:21.339Z,0.68
2023-05-10T08:18:50.107Z,0.70
2023-05-10T08:21:17.436Z,0.93
2023-05-10T08:23:45.091Z,0.47
2023-05-10T08:26:12.890Z,0.70
2023-05-10T08:28:39.974Z,0.60
2023-05-10T08:31:07.530Z,1.02
2023-05-10T08:33:34.691Z,0.43
2023-05-10T08:36:01.898Z,0.60
2023-05-10T08:38:29.079Z,0.57
2023-05-10T08:41:00.142Z,0.38
2023-05-10T08:43:31.288Z,0.55
2023-05-10T08:46:01.689Z,0.50
2023-05-10T08:48:30.613Z,0.68
2023-05-10T08:50:58.979Z,0.57
2023-05-10T08:53:27.666Z,0.68
2023-05-10T08:55:55.131Z,0.57
2023-05-10T08:58:22.357Z,0.57
2023-05-10T09:00:51.806Z,0.88
2023-05-10T09:03:19.554Z,0.60
2023-05-10T09:05:47.052Z,0.60
2023-05-10T09:08:17.224Z,0.50
2023-05-10T09:10:45.463Z,1.20
2023-05-10T09:13:12.935Z,0.90
2023-05-10T09:15:40.624Z,0.50
2023-05-10T09:18:08.012Z,0.43
2023-05-10T09:20:35.148Z,0.80
2023-05-10T09:23:02.252Z,1.05
2023-05-10T09:25:29.441Z,0.75
2023-05-10T09:27:56.640Z,1.00
2023-05-10T09:30:28.266Z,0.95
2023-05-10T09:32:55.927Z,0.80
2023-05-10T09:37:54.640Z,0.60
2023-05-10T09:40:22.778Z,0.82
2023-05-10T09:42:54.547Z,0.82
2023-05-10T09:45:22.363Z,0.57
2023-05-10T09:47:49.553Z,0.60
2023-05-10T09:50:17.245Z,0.60
2023-05-10T09:52:48.514Z,0.60
2023-05-10T09:55:15.963Z,0.52
2023-05-10T09:57:43.293Z,0.80
2023-05-10T10:00:14.065Z,0.60
2023-05-10T10:02:42.089Z,0.77
2023-05-10T10:05:09.577Z,1.67
2023-05-10T10:07:37.098Z,0.70
2023-05-10T10:10:05.752Z,0.57
2023-05-10T10:12:33.074Z,0.50
2023-05-10T10:15:02.163Z,0.77
2023-05-10T10:17:30.457Z,0.60
2023-05-10T10:19:59.184Z,0.63
2023-05-10T10:22:26.300Z,0.70
2023-05-10T10:24:53.488Z,1.42
2023-05-10T10:27:27.158Z,0.70
2023-05-10T10:30:01.195Z,0.70
2023-05-10T10:32:54.584Z,0.80
2023-05-10T10:35:22.327Z,0.85
2023-05-10T10:37:51.607Z,0.60
2023-05-10T10:40:28.650Z,1.13
2023-05-10T10:42:56.810Z,0.60
2023-05-10T10:45:24.647Z,0.90
2023-05-10T10:48:12.240Z,0.80
2023-05-10T10:50:47.011Z,0.70
2023-05-10T10:53:14.405Z,0.90
2023-05-10T10:55:48.853Z,0.80
2023-05-10T10:58:35.262Z,0.80
2023-05-10T11:01:11.700Z,1.30
2023-05-10T11:03:38.903Z,1.27
2023-05-10T11:06:06.159Z,1.10
2023-05-10T11:08:36.423Z,1.10
2023-05-10T11:11:09.088Z,0.75
2023-05-10T11:13:41.147Z,0.70
2023-05-10T11:16:15.541Z,0.77
2023-05-10T11:18:51.119Z,1.10
2023-05-10T11:21:18.242Z,0.90
2023-05-10T11:23:45.341Z,1.23
2023-05-10T11:26:13.303Z,1.10
2023-05-10T11:28:47.268Z,0.82
2023-05-10T11:31:21.366Z,0.83
2023-05-10T11:33:49.462Z,1.10
2023-05-10T11:36:21.534Z,0.98
2023-05-10T11:38:49.610Z,1.05
2023-05-10T11:41:18.394Z,1.30
2023-05-10T11:43:48.348Z,1.48
2023-05-10T11:46:15.591Z,1.00
2023-05-10T11:48:43.342Z,1.20
2023-05-10T11:51:11.094Z,1.00
2023-05-10T11:53:39.057Z,1.40
2023-05-10T11:56:10.104Z,1.45
2023-05-10T11:58:37.826Z,2.00
2023-05-10T12:01:06.548Z,1.80
2023-05-10T12:03:33.910Z,1.80
2023-05-10T12:06:02.078Z,2.10
2023-05-10T12:08:30.220Z,2.00
2023-05-10T12:11:14.940Z,1.80
2023-05-10T12:13:42.738Z,1.67
2023-05-10T12:16:19.753Z,1.52
2023-05-10T12:18:47.302Z,1.50
2023-05-10T12:21:14.564Z,1.35
2023-05-10T12:23:41.779Z,1.20
2023-05-10T12:26:11.956Z,1.17
2023-05-10T12:28:40.401Z,1.15
2023-05-10T12:31:08.055Z,1.30
2023-05-10T12:33:45.498Z,1.00
2023-05-10T12:36:13.662Z,1.00
2023-05-10T12:38:44.155Z,0.77
2023-05-10T12:41:12.268Z,1.40
2023-05-10T12:43:39.905Z,1.20
2023-05-10T12:46:11.104Z,0.98
2023-05-10T12:48:39.342Z,1.00
2023-05-10T12:51:10.243Z,1.20
2023-05-10T12:53:37.854Z,1.10
2023-05-10T12:56:05.073Z,1.10
2023-05-10T12:58:35.883Z,1.33
2023-05-10T13:01:10.163Z,1.17
2023-05-10T13:03:37.294Z,1.20
2023-05-10T13:06:04.485Z,1.27
2023-05-10T13:08:34.598Z,1.10
2023-05-10T13:11:02.374Z,1.20
2023-05-10T13:13:29.469Z,1.20
2023-05-10T13:15:56.587Z,1.40
2023-05-10T13:18:23.801Z,1.30
2023-05-10T13:20:50.973Z,1.38
2023-05-10T13:23:18.127Z,1.30
2023-05-10T13:25:45.223Z,1.42
2023-05-10T13:28:12.348Z,1.52
2023-05-10T13:30:39.487Z,2.03
2023-05-10T13:33:06.659Z,1.23
2023-05-10T13:35:33.759Z,1.20
2023-05-10T13:38:00.905Z,1.42
2023-05-10T13:40:29.017Z,1.10
2023-05-10T13:42:56.116Z,1.13
2023-05-10T13:45:23.268Z,1.30
2023-05-10T13:47:50.471Z,1.40
2023-05-10T13:50:17.968Z,1.40
2023-05-10T13:52:45.072Z,1.15
2023-05-10T13:55:14.142Z,1.30
2023-05-10T13:57:41.719Z,1.10
2023-05-10T14:00:09.137Z,1.45
2023-05-10T14:02:36.438Z,0.80
2023-05-10T14:05:04.019Z,1.27
2023-05-10T14:07:31.688Z,1.00
2023-05-10T14:09:58.797Z,1.10
2023-05-10T14:12:25.987Z,1.20
2023-05-10T14:14:53.326Z,1.52
2023-05-10T14:17:20.459Z,1.10
2023-05-10T14:19:47.699Z,1.10
2023-05-10T14:22:14.805Z,1.70
2023-05-10T14:24:42.029Z,1.55
2023-05-10T14:27:09.306Z,1.33
2023-05-10T14:29:36.572Z,0.98
2023-05-10T14:32:03.907Z,1.05
2023-05-10T14:34:31.079Z,1.02
2023-05-10T14:36:58.218Z,1.10
2023-05-10T14:39:25.471Z,1.27
2023-05-10T14:41:53.107Z,1.10
2023-05-10T14:44:20.458Z,1.10
2023-05-10T14:46:48.167Z,1.70
2023-05-10T14:49:15.630Z,0.98
2023-05-10T14:51:42.915Z,1.13
2023-05-10T14:54:10.032Z,1.05
2023-05-10T14:56:38.339Z,1.05
2023-05-10T14:59:05.523Z,0.90
2023-05-10T15:01:34.010Z,1.00
2023-05-10T15:04:01.802Z,0.98
2023-05-10T15:06:32.953Z,1.13
2023-05-10T15:09:00.114Z,1.10
2023-05-10T15:11:27.320Z,1.17
2023-05-10T15:13:54.906Z,1.08
2023-05-10T15:16:22.169Z,0.68
2023-05-10T15:18:49.985Z,0.88
2023-05-10T15:21:17.137Z,0.93
2023-05-10T15:23:44.254Z,1.10
2023-05-10T15:26:11.382Z,1.10
2023-05-10T15:28:38.547Z,0.75
2023-05-10T15:31:05.728Z,1.10
2023-05-10T15:33:33.080Z,1.00
2023-05-10T15:36:00.182Z,1.00
2023-05-10T15:38:27.313Z,0.90
2023-05-10T15:40:59.076Z,1.15
2023-05-10T15:43:26.321Z,0.90
2023-05-10T15:45:53.428Z,0.98
2023-05-10T15:48:20.561Z,0.80
2023-05-10T15:50:47.712Z,1.00
2023-05-10T15:53:14.859Z,1.25
2023-05-10T15:55:42.010Z,0.90
2023-05-10T15:58:09.197Z,1.10
2023-05-10T16:00:36.440Z,1.15
2023-05-10T16:03:03.837Z,1.10
2023-05-10T16:05:33.562Z,1.38
2023-05-10T16:08:01.676Z,1.20
2023-05-10T16:10:28.912Z,1.08
2023-05-10T16:12:56.169Z,1.33
2023-05-10T16:15:23.350Z,1.00
2023-05-10T16:17:51.046Z,1.10
2023-05-10T16:20:18.482Z,1.15
2023-05-10T16:22:45.658Z,1.10
2023-05-10T16:25:13.986Z,1.20
2023-05-10T16:27:41.198Z,1.42
2023-05-10T16:30:08.690Z,1.08
2023-05-10T16:32:35.897Z,1.10
2023-05-10T16:35:03.107Z,1.33
2023-05-10T16:37:30.273Z,1.17
2023-05-10T16:39:57.351Z,1.30
2023-05-10T16:42:25.118Z,1.38
2023-05-10T16:44:52.455Z,1.30
2023-05-10T16:47:19.623Z,1.35
2023-05-10T16:49:46.764Z,1.17
2023-05-10T16:52:13.914Z,1.50
2023-05-10T16:54:41.017Z,1.33
2023-05-10T16:57:08.648Z,1.88
2023-05-10T16:59:35.783Z,1.52
2023-05-10T17:02:02.936Z,1.42
2023-05-10T17:04:30.084Z,1.50
2023-05-10T17:06:57.650Z,1.50
2023-05-10T17:09:24.760Z,1.33
2023-05-10T17:11:51.859Z,1.20
2023-05-10T17:14:18.968Z,0.90
2023-05-10T17:16:47.958Z,0.60
2023-05-10T17:19:15.362Z,0.85
2023-05-10T17:21:42.521Z,1.00
2023-05-10T17:24:09.624Z,1.02
2023-05-10T17:26:36.900Z,1.10
2023-05-10T17:29:04.280Z,1.20
2023-05-10T17:31:32.482Z,0.80
2023-05-10T17:33:59.884Z,1.13
2023-05-10T17:36:27.028Z,1.15
2023-05-10T17:38:54.158Z,1.20
2023-05-10T17:41:21.793Z,1.08
2023-05-10T17:43:48.935Z,1.15
2023-05-10T17:46:16.163Z,1.25
2023-05-10T17:48:43.512Z,1.02
2023-05-10T17:51:12.121Z,1.05
2023-05-10T17:53:42.584Z,1.00
2023-05-10T17:56:09.707Z,1.23
2023-05-10T17:58:38.346Z,1.13
2023-05-10T18:01:05.932Z,1.15
2023-05-10T18:03:33.903Z,1.17
2023-05-10T18:06:01.133Z,1.20
2023-05-10T18:08:30.467Z,1.00
2023-05-10T18:10:57.926Z,1.40
2023-05-10T18:13:25.630Z,1.38
2023-05-10T18:15:53.218Z,1.42
2023-05-10T18:18:20.379Z,0.98
2023-05-10T18:20:47.668Z,1.30
2023-05-10T18:23:15.329Z,0.90
2023-05-10T18:25:42.610Z,1.80
2023-05-10T18:28:09.880Z,1.10
2023-05-10T18:30:36.991Z,1.10
2023-05-10T18:33:04.194Z,1.50
2023-05-10T18:35:31.493Z,1.10
2023-05-10T18:37:59.146Z,0.90
2023-05-10T18:40:27.172Z,1.40
2023-05-10T18:42:54.303Z,1.27
2023-05-10T18:45:21.473Z,1.33
2023-05-10T18:47:48.673Z,1.27
2023-05-10T18:50:17.179Z,1.27
2023-05-10T18:52:44.384Z,1.38
2023-05-10T18:55:11.894Z,1.20
2023-05-10T18:57:41.671Z,1.38
2023-05-10T19:00:13.084Z,1.33
2023-05-10T19:02:41.033Z,1.30
2023-05-10T19:05:09.020Z,1.40
2023-05-10T19:07:36.380Z,1.33
2023-05-10T19:10:03.887Z,1.33
2023-05-10T19:12:31.032Z,1.27
2023-05-10T19:14:58.145Z,1.52
2023-05-10T19:17:26.118Z,1.38
2023-05-10T19:19:55.471Z,1.38
2023-05-10T19:22:35.285Z,1.30
2023-05-10T19:25:06.467Z,1.38
2023-05-10T19:27:33.981Z,0.93
2023-05-10T19:30:01.571Z,1.20
2023-05-10T19:32:29.005Z,1.38
2023-05-10T19:34:56.716Z,1.23
2023-05-10T19:37:24.868Z,1.35
2023-05-10T19:39:52.062Z,1.30
2023-05-10T19:42:19.580Z,1.35
2023-05-10T19:44:46.812Z,1.25
2023-05-10T19:47:14.039Z,1.60
2023-05-10T19:49:41.433Z,1.30
2023-05-10T19:52:10.500Z,1.20
2023-05-10T19:54:38.142Z,1.50
2023-05-10T19:57:05.343Z,1.30
2023-05-10T19:59:32.457Z,1.63
2023-05-10T20:01:59.569Z,1.60
2023-05-10T20:04:28.772Z,1.38
2023-05-10T20:06:56.142Z,1.20
2023-05-10T20:09:23.257Z,1.58
2023-05-10T20:11:50.360Z,1.42
2023-05-10T20:14:18.289Z,1.17
2023-05-10T20:16:45.577Z,1.20
2023-05-10T20:19:12.928Z,1.33
2023-05-10T20:21:40.131Z,1.23
2023-05-10T20:24:07.871Z,1.33
2023-05-10T20:26:34.978Z,1.70
2023-05-10T20:29:02.106Z,1.60
2023-05-10T20:31:29.341Z,1.40
2023-05-10T20:33:56.529Z,1.40
2023-05-10T20:36:23.750Z,1.48
2023-05-10T20:38:50.851Z,1.30
2023-05-10T20:41:17.987Z,1.30
2023-05-10T20:43:45.104Z,1.35
2023-05-10T20:46:12.310Z,1.40
2023-05-10T20:48:40.569Z,1.38
2023-05-10T20:51:07.737Z,1.45
2023-05-10T20:53:34.879Z,1.40
2023-05-10T20:56:02.362Z,1.60
2023-05-10T20:58:29.488Z,1.50
2023-05-10T21:00:56.595Z,1.50
2023-05-10T21:03:23.688Z,1.20
2023-05-10T21:05:50.802Z,1.58
2023-05-10T21:08:18.190Z,1.38
2023-05-10T21:10:45.609Z,1.20
2023-05-10T21:13:12.708Z,1.50
2023-05-10T21:15:39.813Z,1.25
2023-05-10T21:18:06.962Z,1.52
2023-05-10T21:20:34.097Z,1.50
2023-05-10T21:23:01.180Z,1.33
2023-05-10T21:25:28.284Z,1.70
2023-05-10T21:27:55.873Z,1.50
2023-05-10T21:30:23.404Z,1.45
2023-05-10T21:32:50.614Z,1.17
2023-05-10T21:35:17.809Z,1.10
2023-05-10T21:37:44.913Z,1.27
2023-05-10T21:40:12.818Z,1.15
2023-05-10T21:42:39.973Z,1.10
2023-05-10T21:45:07.307Z,1.02
2023-05-10T21:47:34.713Z,1.27
2023-05-10T21:50:01.832Z,1.15
2023-05-10T21:52:28.950Z,1.10
2023-05-10T21:54:56.119Z,1.13
2023-05-10T21:57:23.403Z,1.27
2023-05-10T21:59:50.528Z,1.42
2023-05-10T22:02:17.656Z,0.90
2023-05-10T22:04:44.793Z,1.10
2023-05-10T22:07:11.951Z,1.10
2023-05-10T22:09:39.059Z,1.40
2023-05-10T22:12:06.232Z,1.23
2023-05-10T22:14:33.347Z,0.95
2023-05-10T22:17:00.585Z,1.30
2023-05-10T22:19:27.702Z,1.25
2023-05-10T22:21:54.828Z,1.23
2023-05-10T22:24:21.907Z,1.23
2023-05-10T22:26:49.009Z,1.40
2023-05-10T22:29:16.108Z,1.00
2023-05-10T22:31:43.206Z,0.70
2023-05-10T22:34:10.413Z,0.82
2023-05-10T22:36:37.696Z,0.80
2023-05-10T22:39:04.884Z,0.80
2023-05-10T22:41:34.166Z,0.80
2023-05-10T22:44:02.141Z,1.08
2023-05-10T22:46:29.615Z,0.70
2023-05-10T22:48:57.009Z,0.95
2023-05-10T22:51:24.102Z,0.93
2023-05-10T22:53:51.304Z,0.73
2023-05-10T22:56:18.600Z,0.70
2023-05-10T22:58:45.730Z,1.00
2023-05-10T23:01:12.842Z,0.68
2023-05-10T23:03:40.022Z,0.88
2023-05-10T23:06:07.169Z,0.80
2023-05-10T23:08:34.277Z,0.98
2023-05-10T23:11:01.375Z,0.90
2023-05-10T23:13:29.243Z,1.05
2023-05-10T23:15:56.415Z,0.80
2023-05-10T23:18:23.612Z,0.70
2023-05-10T23:20:50.782Z,0.80
2023-05-10T23:23:17.975Z,0.60
2023-05-10T23:25:45.131Z,0.80
2023-05-10T23:28:12.245Z,0.80
2023-05-10T23:30:39.318Z,0.98
2023-05-10T23:33:06.675Z,0.60
2023-05-10T23:35:33.801Z,0.80
2023-05-10T23:38:00.976Z,0.85
2023-05-10T23:40:28.198Z,0.80
2023-05-10T23:42:55.357Z,0.80
2023-05-10T23:45:22.519Z,0.70
2023-05-10T23:47:49.702Z,0.77
2023-05-10T23:50:17.290Z,0.90
2023-05-10T23:52:44.524Z,0.90
2023-05-10T23:55:11.826Z,0.82
2023-05-10T23:57:38.914Z,0.80
